createdAt,value
2018-08-06T00:00:12.064Z,12.16
2018-08-06T00:01:12.072Z,11.91
2018-08-06T00:02:12.078Z,11.9
2018-08-06T00:03:12.122Z,11.94
2018-08-06T00:04:12.075Z,11.96
2018-08-06T00:05:12.066Z,11.87
2018-08-06T00:06:12.110Z,11.92
2018-08-06T00:07:12.079Z,12.06
2018-08-06T00:08:12.082Z,12.11
2018-08-06T00:09:12.129Z,12.02
2018-08-06T00:10:12.026Z,12.06
2018-08-06T00:11:12.176Z,11.99
2018-08-06T00:12:12.066Z,11.94
2018-08-06T00:13:12.020Z,11.99
2018-08-06T00:14:12.079Z,11.91
2018-08-06T00:15:12.038Z,11.97
2018-08-06T00:16:12.070Z,11.92
2018-08-06T00:17:12.079Z,12.01
2018-08-06T00:18:12.051Z,11.92
2018-08-06T00:19:12.071Z,11.93
2018-08-06T00:20:12.133Z,11.91
2018-08-06T00:21:12.012Z,12
2018-08-06T00:22:12.188Z,11.9
2018-08-06T00:23:12.018Z,11.87
2018-08-06T00:24:12.027Z,11.89
2018-08-06T00:25:12.006Z,11.91
2018-08-06T00:26:12.030Z,11.96
2018-08-06T00:27:12.049Z,11.9
2018-08-06T00:28:12.119Z,11.86
2018-08-06T00:29:12.056Z,11.87
2018-08-06T00:30:12.170Z,11.92
2018-08-06T00:31:12.067Z,11.93
2018-08-06T00:32:12.052Z,11.96
2018-08-06T00:33:12.003Z,11.85
2018-08-06T00:34:11.991Z,11.87
2018-08-06T00:35:12.047Z,11.9
2018-08-06T00:36:12.000Z,11.9
2018-08-06T00:37:12.008Z,11.88
2018-08-06T00:38:12.017Z,11.88
2018-08-06T00:39:11.973Z,11.96
2018-08-06T00:40:12.028Z,11.86
2018-08-06T00:41:12.133Z,11.91
2018-08-06T00:42:11.975Z,11.84
2018-08-06T00:43:12.023Z,11.84
2018-08-06T00:44:12.000Z,11.82
2018-08-06T00:45:11.989Z,12.04
2018-08-06T00:46:11.997Z,12.09
2018-08-06T00:47:11.990Z,12
2018-08-06T00:48:11.982Z,11.97
2018-08-06T00:49:11.988Z,11.99
2018-08-06T00:50:11.998Z,11.94
2018-08-06T00:51:11.964Z,11.95
2018-08-06T00:52:12.010Z,11.96
2018-08-06T00:53:11.978Z,11.95
2018-08-06T00:54:11.985Z,12.02
2018-08-06T00:55:12.124Z,12.02
2018-08-06T00:56:12.181Z,11.97
2018-08-06T00:57:11.984Z,11.96
2018-08-06T00:58:12.044Z,12.02
2018-08-06T00:59:11.965Z,11.9
2018-08-06T01:00:11.993Z,11.99
2018-08-06T01:01:11.977Z,12.01
2018-08-06T01:02:12.072Z,12.02
2018-08-06T01:03:12.126Z,12.1
2018-08-06T01:04:12.191Z,12.14
2018-08-06T01:05:11.991Z,12.17
2018-08-06T01:06:11.994Z,12.14
2018-08-06T01:07:12.096Z,12.2
2018-08-06T01:08:12.034Z,12.21
2018-08-06T01:09:12.095Z,12.09
2018-08-06T01:10:12.145Z,12.07
2018-08-06T01:11:11.965Z,12.23
2018-08-06T01:12:12.036Z,12.11
2018-08-06T01:13:12.060Z,12.15
2018-08-06T01:14:12.043Z,12.28
2018-08-06T01:15:12.076Z,12.17
2018-08-06T01:16:12.037Z,12.04
2018-08-06T01:17:12.069Z,12.05
2018-08-06T01:18:12.063Z,12.05
2018-08-06T01:19:12.084Z,12.07
2018-08-06T01:20:12.027Z,12.11
2018-08-06T01:21:12.000Z,12.31
2018-08-06T01:22:12.018Z,12.4
2018-08-06T01:23:12.028Z,12.2
2018-08-06T01:24:11.990Z,12.36
2018-08-06T01:25:12.025Z,12.43
2018-08-06T01:26:12.033Z,12.38
2018-08-06T01:27:12.053Z,12.35
2018-08-06T01:28:12.174Z,12.55
2018-08-06T01:29:12.014Z,12.55
2018-08-06T01:30:11.981Z,12.36
2018-08-06T01:31:12.078Z,12.31
2018-08-06T01:32:12.019Z,12.53
2018-08-06T01:33:12.104Z,12.36
2018-08-06T01:34:12.064Z,12.24
2018-08-06T01:35:12.029Z,12.23
2018-08-06T01:36:11.971Z,12.24
2018-08-06T01:37:12.066Z,12.42
2018-08-06T01:38:12.144Z,12.28
2018-08-06T01:39:12.060Z,12.38
2018-08-06T01:40:12.044Z,12.28
2018-08-06T01:41:12.135Z,12.32
2018-08-06T01:42:12.063Z,12.28
2018-08-06T01:43:12.123Z,12.32
2018-08-06T01:44:11.973Z,12.33
2018-08-06T01:45:12.064Z,12.45
2018-08-06T01:46:12.082Z,12.38
2018-08-06T01:47:12.068Z,12.36
2018-08-06T01:48:12.153Z,12.38
2018-08-06T01:49:12.012Z,12.44
2018-08-06T01:50:11.989Z,12.31
2018-08-06T01:51:11.955Z,12.27
2018-08-06T01:52:11.971Z,12.46
2018-08-06T01:53:11.978Z,12.42
2018-08-06T01:54:11.987Z,12.3
2018-08-06T01:55:12.000Z,12.53
2018-08-06T01:56:11.993Z,12.63
2018-08-06T01:57:12.011Z,12.58
2018-08-06T01:58:11.967Z,12.55
2018-08-06T01:59:11.969Z,12.46
2018-08-06T02:00:11.954Z,12.56
2018-08-06T02:01:12.027Z,12.63
2018-08-06T02:02:11.976Z,12.58
2018-08-06T02:03:11.979Z,12.59
2018-08-06T02:04:11.942Z,12.52
2018-08-06T02:05:11.949Z,12.49
2018-08-06T02:06:11.993Z,12.67
2018-08-06T02:07:11.987Z,12.6
2018-08-06T02:08:12.009Z,12.63
2018-08-06T02:09:11.986Z,12.67
2018-08-06T02:10:12.017Z,12.66
2018-08-06T02:11:12.003Z,12.72
2018-08-06T02:12:11.988Z,12.74
2018-08-06T02:13:12.035Z,12.71
2018-08-06T02:14:12.062Z,12.47
2018-08-06T02:15:12.113Z,12.55
2018-08-06T02:16:12.027Z,12.77
2018-08-06T02:17:11.972Z,12.57
2018-08-06T02:18:12.098Z,12.56
2018-08-06T02:19:12.060Z,12.75
2018-08-06T02:20:12.045Z,12.79
2018-08-06T02:21:12.138Z,12.72
2018-08-06T02:22:12.037Z,12.73
2018-08-06T02:23:11.943Z,12.67
2018-08-06T02:24:12.010Z,12.57
2018-08-06T02:25:12.038Z,12.78
2018-08-06T02:26:11.957Z,12.87
2018-08-06T02:27:12.076Z,12.65
2018-08-06T02:28:11.962Z,12.5
2018-08-06T02:29:11.994Z,12.95
2018-08-06T02:30:12.001Z,12.98
2018-08-06T02:31:12.019Z,13.02
2018-08-06T02:32:12.192Z,12.98
2018-08-06T02:33:12.124Z,13.04
2018-08-06T02:34:12.042Z,13.05
2018-08-06T02:35:12.060Z,13.07
2018-08-06T02:36:12.064Z,12.97
2018-08-06T02:37:12.036Z,13.02
2018-08-06T02:38:11.974Z,12.85
2018-08-06T02:39:12.087Z,12.75
2018-08-06T02:40:12.088Z,13.02
2018-08-06T02:41:12.165Z,12.96
2018-08-06T02:42:12.033Z,13.13
2018-08-06T02:43:12.113Z,13.22
2018-08-06T02:44:12.073Z,12.93
2018-08-06T02:45:12.068Z,13.09
2018-08-06T02:46:12.099Z,12.96
2018-08-06T02:47:12.003Z,13.03
2018-08-06T02:48:12.029Z,13.13
2018-08-06T02:49:11.979Z,13.14
2018-08-06T02:50:12.062Z,12.96
2018-08-06T02:51:12.002Z,12.91
2018-08-06T02:52:11.992Z,13.04
2018-08-06T02:53:12.122Z,13.22
2018-08-06T02:54:12.057Z,13.28
2018-08-06T02:55:11.982Z,13.2
2018-08-06T02:56:11.935Z,12.98
2018-08-06T02:57:11.952Z,13.22
2018-08-06T02:58:12.004Z,13.24
2018-08-06T02:59:11.999Z,13.05
2018-08-06T03:00:12.398Z,12.88
2018-08-06T03:01:12.050Z,13.05
2018-08-06T03:02:12.084Z,13.14
2018-08-06T03:03:11.963Z,13.11
2018-08-06T03:04:11.956Z,12.94
2018-08-06T03:05:11.971Z,13.1
2018-08-06T03:06:12.313Z,12.98
2018-08-06T03:07:12.008Z,13.02
2018-08-06T03:08:11.997Z,13.06
2018-08-06T03:09:11.957Z,12.92
2018-08-06T03:10:11.985Z,12.88
2018-08-06T03:11:11.993Z,12.94
2018-08-06T03:12:11.955Z,12.91
2018-08-06T03:13:11.962Z,12.81
2018-08-06T03:14:11.963Z,12.86
2018-08-06T03:15:11.963Z,12.85
2018-08-06T03:16:11.950Z,13.02
2018-08-06T03:17:11.983Z,12.91
2018-08-06T03:18:11.977Z,13.04
2018-08-06T03:19:11.992Z,12.99
2018-08-06T03:20:11.941Z,12.87
2018-08-06T03:21:11.942Z,13.13
2018-08-06T03:22:11.959Z,13.12
2018-08-06T03:23:11.994Z,12.86
2018-08-06T03:24:11.926Z,12.82
2018-08-06T03:25:11.943Z,12.87
2018-08-06T03:26:12.044Z,13.1
2018-08-06T03:27:12.087Z,13.13
2018-08-06T03:28:11.952Z,12.89
2018-08-06T03:29:11.988Z,13.13
2018-08-06T03:30:11.954Z,13.2
2018-08-06T03:31:12.049Z,13.14
2018-08-06T03:32:11.944Z,12.99
2018-08-06T03:33:11.939Z,13
2018-08-06T03:34:12.102Z,13.18
2018-08-06T03:35:12.126Z,13.05
2018-08-06T03:36:11.947Z,13.02
2018-08-06T03:37:11.965Z,13.07
2018-08-06T03:38:11.935Z,13.14
2018-08-06T03:39:12.218Z,13.19
2018-08-06T03:40:12.532Z,12.97
2018-08-06T03:41:12.046Z,13.21
2018-08-06T03:42:12.042Z,13.1
2018-08-06T03:43:12.446Z,13.12
2018-08-06T03:44:12.107Z,13.14
2018-08-06T03:45:11.962Z,13.24
2018-08-06T03:46:11.951Z,13.05
2018-08-06T03:47:11.983Z,13.32
2018-08-06T03:48:12.098Z,13.32
2018-08-06T03:49:11.947Z,13.28
2018-08-06T03:50:46.793Z,13.21
2018-08-06T03:51:12.079Z,13.11
2018-08-06T03:52:11.916Z,13
2018-08-06T03:53:12.157Z,13.11
2018-08-06T03:54:11.997Z,13.45
2018-08-06T03:55:12.024Z,13.4
2018-08-06T03:56:11.971Z,13.33
2018-08-06T03:57:11.942Z,13.32
2018-08-06T03:58:19.533Z,13.25
2018-08-06T03:59:12.100Z,13.31
2018-08-06T04:00:12.006Z,13.17
2018-08-06T04:01:12.043Z,13.34
2018-08-06T04:02:12.247Z,13.02
2018-08-06T04:03:12.034Z,13.43
2018-08-06T04:04:12.090Z,13.28
2018-08-06T04:05:12.143Z,13.42
2018-08-06T04:06:11.980Z,13.36
2018-08-06T04:07:12.094Z,13.37
2018-08-06T04:08:12.026Z,13.4
2018-08-06T04:09:12.022Z,13.45
2018-08-06T04:10:11.964Z,13.28
2018-08-06T04:11:11.950Z,13.42
2018-08-06T04:12:12.004Z,13.29
2018-08-06T04:13:11.999Z,13.06
2018-08-06T04:14:11.997Z,13.03
2018-08-06T04:15:12.031Z,13.05
2018-08-06T04:16:12.048Z,13
2018-08-06T04:17:12.133Z,13.25
2018-08-06T04:18:12.061Z,13.28
2018-08-06T04:19:11.989Z,13.24
2018-08-06T04:20:12.051Z,13.31
2018-08-06T04:21:12.080Z,13.19
2018-08-06T04:22:11.986Z,13.11
2018-08-06T04:23:12.060Z,13.23
2018-08-06T04:24:11.997Z,13.29
2018-08-06T04:25:12.020Z,13.2
2018-08-06T04:26:12.030Z,13.14
2018-08-06T04:27:11.961Z,13.47
2018-08-06T04:28:11.959Z,13.21
2018-08-06T04:29:11.989Z,13.39
2018-08-06T04:30:11.984Z,13.2
2018-08-06T04:31:11.989Z,13.32
2018-08-06T04:32:12.013Z,13.3
2018-08-06T04:33:12.412Z,13.37
2018-08-06T04:34:12.008Z,13.33
2018-08-06T04:35:12.083Z,13.08
2018-08-06T04:36:12.153Z,12.97
2018-08-06T04:37:12.130Z,12.99
2018-08-06T04:38:11.984Z,12.87
2018-08-06T04:39:12.066Z,13.09
2018-08-06T04:40:12.201Z,13.05
2018-08-06T04:41:11.995Z,13
2018-08-06T04:42:12.195Z,13.21
2018-08-06T04:43:12.087Z,12.98
2018-08-06T04:44:12.099Z,13.06
2018-08-06T04:45:12.065Z,13.05
2018-08-06T04:46:12.029Z,13.07
2018-08-06T04:47:12.127Z,13.02
2018-08-06T04:48:12.100Z,13.09
2018-08-06T04:49:12.023Z,13.07
2018-08-06T04:50:12.028Z,13.13
2018-08-06T04:51:12.074Z,13.07
2018-08-06T04:52:12.080Z,13.09
2018-08-06T04:53:12.093Z,13.12
2018-08-06T04:54:12.008Z,13.12
2018-08-06T04:55:12.039Z,13.23
2018-08-06T04:56:12.055Z,13.27
2018-08-06T04:57:12.050Z,13.22
2018-08-06T04:58:12.068Z,13.18
2018-08-06T04:59:12.117Z,13.19
2018-08-06T05:00:12.154Z,13.2
2018-08-06T05:01:12.039Z,13.21
2018-08-06T05:02:11.994Z,13.11
2018-08-06T05:03:12.006Z,13.26
2018-08-06T05:04:12.156Z,13.17
2018-08-06T05:05:12.056Z,13.19
2018-08-06T05:06:12.035Z,13.25
2018-08-06T05:07:12.043Z,13.18
2018-08-06T05:08:12.045Z,13.25
2018-08-06T05:09:12.061Z,13.26
2018-08-06T05:10:12.095Z,13.23
2018-08-06T05:11:12.106Z,13.23
2018-08-06T05:12:12.015Z,13.19
2018-08-06T05:13:12.087Z,13.29
2018-08-06T05:14:12.085Z,13.28
2018-08-06T05:15:12.063Z,13.22
2018-08-06T05:16:12.178Z,13.32
2018-08-06T05:17:12.350Z,13.32
2018-08-06T05:18:12.048Z,13.31
2018-08-06T05:19:12.068Z,13.34
2018-08-06T05:20:12.065Z,13.35
2018-08-06T05:21:12.046Z,13.33
2018-08-06T05:22:12.024Z,13.31
2018-08-06T05:23:12.191Z,13.34
2018-08-06T05:24:12.107Z,13.31
2018-08-06T05:25:12.124Z,13.29
2018-08-06T05:26:12.078Z,13.32
2018-08-06T05:27:12.079Z,13.29
2018-08-06T05:28:12.065Z,13.46
2018-08-06T05:29:12.131Z,13.37
2018-08-06T05:30:12.090Z,13.44
2018-08-06T05:31:12.244Z,13.42
2018-08-06T05:32:12.108Z,13.37
2018-08-06T05:33:12.072Z,13.43
2018-08-06T05:34:12.053Z,13.28
2018-08-06T05:35:12.065Z,13.34
2018-08-06T05:36:12.101Z,13.43
2018-08-06T05:37:12.071Z,13.47
2018-08-06T05:38:12.157Z,13.45
2018-08-06T05:39:12.113Z,13.49
2018-08-06T05:40:12.200Z,13.4
2018-08-06T05:41:12.168Z,13.42
2018-08-06T05:42:12.078Z,13.46
2018-08-06T05:43:12.084Z,13.47
2018-08-06T05:44:12.325Z,13.52
2018-08-06T05:45:12.123Z,13.46
2018-08-06T05:46:12.097Z,13.6
2018-08-06T05:47:12.174Z,13.55
2018-08-06T05:48:12.328Z,13.56
2018-08-06T05:49:12.235Z,13.49
2018-08-06T05:50:12.136Z,13.5
2018-08-06T05:51:12.084Z,13.44
2018-08-06T05:52:12.146Z,13.55
2018-08-06T05:53:12.144Z,13.53
2018-08-06T05:54:12.116Z,13.49
2018-08-06T05:55:12.155Z,13.51
2018-08-06T05:56:12.106Z,13.51
2018-08-06T05:57:12.127Z,13.57
2018-08-06T05:58:12.310Z,13.56
2018-08-06T05:59:12.276Z,13.51
2018-08-06T06:00:12.101Z,13.5
2018-08-06T06:01:12.323Z,13.56
2018-08-06T06:02:13.883Z,13.62
2018-08-06T06:03:12.407Z,13.68
2018-08-06T06:04:12.181Z,13.7
2018-08-06T06:05:12.881Z,13.67
2018-08-06T06:06:12.935Z,13.62
2018-08-06T06:07:13.051Z,13.68
2018-08-06T06:08:12.354Z,13.65
2018-08-06T06:09:12.108Z,13.66
2018-08-06T06:10:12.109Z,13.63
2018-08-06T06:11:12.196Z,13.61
2018-08-06T06:12:12.192Z,13.62
2018-08-06T06:13:12.119Z,13.66
2018-08-06T06:14:12.133Z,13.67
2018-08-06T06:15:12.137Z,13.71
2018-08-06T06:16:17.125Z,13.73
2018-08-06T06:17:12.389Z,13.68
2018-08-06T06:18:12.131Z,13.72
2018-08-06T06:19:12.398Z,13.7
2018-08-06T06:20:12.119Z,13.78
2018-08-06T06:21:14.773Z,13.74
2018-08-06T06:22:12.104Z,13.75
2018-08-06T06:23:12.307Z,13.89
2018-08-06T06:24:12.140Z,13.84
2018-08-06T06:25:12.212Z,13.81
2018-08-06T06:26:12.157Z,13.78
2018-08-06T06:27:12.307Z,13.89
2018-08-06T06:28:12.284Z,13.84
2018-08-06T06:29:12.152Z,13.8
2018-08-06T06:30:12.166Z,13.84
2018-08-06T06:31:12.212Z,13.84
2018-08-06T06:32:12.299Z,13.83
2018-08-06T06:33:12.176Z,13.84
2018-08-06T06:34:12.301Z,13.9
2018-08-06T06:35:12.196Z,13.88
2018-08-06T06:36:12.182Z,13.86
2018-08-06T06:37:12.199Z,13.9
2018-08-06T06:38:12.167Z,13.96
2018-08-06T06:39:12.199Z,13.91
2018-08-06T06:40:12.163Z,13.87
2018-08-06T06:41:12.370Z,13.91
2018-08-06T06:42:12.163Z,13.94
2018-08-06T06:43:12.318Z,13.91
2018-08-06T06:44:12.155Z,13.91
2018-08-06T06:45:12.204Z,13.92
2018-08-06T06:46:12.177Z,13.99
2018-08-06T06:47:12.229Z,14.04
2018-08-06T06:48:12.190Z,14.02
2018-08-06T06:49:12.625Z,14.02
2018-08-06T06:50:12.190Z,14.08
2018-08-06T06:51:12.263Z,14.13
2018-08-06T06:52:12.247Z,14.14
2018-08-06T06:53:12.178Z,14.12
2018-08-06T06:54:12.174Z,14.11
2018-08-06T06:55:12.167Z,14.18
2018-08-06T06:56:12.203Z,14.18
2018-08-06T06:57:12.204Z,14.23
2018-08-06T06:58:12.219Z,14.15
2018-08-06T06:59:12.192Z,14.22
2018-08-06T07:00:12.259Z,14.19
2018-08-06T07:01:12.197Z,14.25
2018-08-06T07:02:12.179Z,14.24
2018-08-06T07:03:12.177Z,14.28
2018-08-06T07:04:12.176Z,14.35
2018-08-06T07:05:12.201Z,14.3
2018-08-06T07:06:12.189Z,14.16
2018-08-06T07:07:12.229Z,14.25
2018-08-06T07:08:12.191Z,14.18
2018-08-06T07:09:12.289Z,14.19
2018-08-06T07:10:12.248Z,14.05
2018-08-06T07:11:12.257Z,14.09
2018-08-06T07:12:12.209Z,14.21
2018-08-06T07:13:12.197Z,14.21
2018-08-06T07:14:12.359Z,14.24
2018-08-06T07:15:12.262Z,14.13
2018-08-06T07:16:12.284Z,14.1
2018-08-06T07:17:12.201Z,14.34
2018-08-06T07:18:12.343Z,14.14
2018-08-06T07:19:12.434Z,14.18
2018-08-06T07:20:12.445Z,14.15
2018-08-06T07:21:12.220Z,14.22
2018-08-06T07:22:12.228Z,14.31
2018-08-06T07:23:12.419Z,14.34
2018-08-06T07:24:12.200Z,14.53
2018-08-06T07:25:12.191Z,14.54
2018-08-06T07:26:12.226Z,14.42
2018-08-06T07:27:12.211Z,14.47
2018-08-06T07:28:12.217Z,14.35
2018-08-06T07:29:12.292Z,14.24
2018-08-06T07:30:12.261Z,14.36
2018-08-06T07:31:12.242Z,14.32
2018-08-06T07:32:12.250Z,14.28
2018-08-06T07:33:12.287Z,14.25
2018-08-06T07:34:12.481Z,14.34
2018-08-06T07:35:12.195Z,14.44
2018-08-06T07:36:12.338Z,14.54
2018-08-06T07:37:12.283Z,14.54
2018-08-06T07:38:12.224Z,14.46
2018-08-06T07:39:12.233Z,14.32
2018-08-06T07:40:12.592Z,14.33
2018-08-06T07:41:12.321Z,14.4
2018-08-06T07:42:12.408Z,14.39
2018-08-06T07:43:12.643Z,14.45
2018-08-06T07:44:12.205Z,14.49
2018-08-06T07:45:12.243Z,14.54
2018-08-06T07:46:12.492Z,14.48
2018-08-06T07:47:12.279Z,14.48
2018-08-06T07:48:12.253Z,14.41
2018-08-06T07:49:12.298Z,14.36
2018-08-06T07:50:12.370Z,14.39
2018-08-06T07:51:12.211Z,14.31
2018-08-06T07:52:12.225Z,14.32
2018-08-06T07:53:12.298Z,14.35
2018-08-06T07:54:12.443Z,14.28
2018-08-06T07:55:12.266Z,14.4
2018-08-06T07:56:12.241Z,14.38
2018-08-06T07:57:12.279Z,14.39
2018-08-06T07:58:12.338Z,14.38
2018-08-06T07:59:12.507Z,14.4
2018-08-06T08:00:12.237Z,14.47
2018-08-06T08:01:12.213Z,14.43
2018-08-06T08:02:12.241Z,14.53
2018-08-06T08:03:12.234Z,14.54
2018-08-06T08:04:12.352Z,14.56
2018-08-06T08:05:12.251Z,14.47
2018-08-06T08:06:12.276Z,14.45
2018-08-06T08:07:12.250Z,14.48
2018-08-06T08:08:12.247Z,14.57
2018-08-06T08:09:12.276Z,14.56
2018-08-06T08:10:12.252Z,14.56
2018-08-06T08:11:12.274Z,14.52
2018-08-06T08:12:12.278Z,14.47
2018-08-06T08:13:12.249Z,14.55
2018-08-06T08:14:12.257Z,14.53
2018-08-06T08:15:12.248Z,14.4
2018-08-06T08:16:12.295Z,14.44
2018-08-06T08:17:12.274Z,14.38
2018-08-06T08:18:12.260Z,14.48
2018-08-06T08:19:12.258Z,14.47
2018-08-06T08:20:13.789Z,14.54
2018-08-06T08:21:12.325Z,14.6
2018-08-06T08:22:12.285Z,14.57
2018-08-06T08:23:12.331Z,14.57
2018-08-06T08:24:12.287Z,14.59
2018-08-06T08:25:12.278Z,14.58
2018-08-06T08:26:12.386Z,14.67
2018-08-06T08:27:12.418Z,14.6
2018-08-06T08:28:12.318Z,14.61
2018-08-06T08:29:12.399Z,14.67
2018-08-06T08:30:12.285Z,14.72
2018-08-06T08:31:12.352Z,14.64
2018-08-06T08:32:12.358Z,14.72
2018-08-06T08:33:12.338Z,14.76
2018-08-06T08:34:12.320Z,14.71
2018-08-06T08:35:12.568Z,14.76
2018-08-06T08:36:12.476Z,14.75
2018-08-06T08:37:12.328Z,14.77
2018-08-06T08:38:12.337Z,14.84
2018-08-06T08:39:12.290Z,14.86
2018-08-06T08:40:12.363Z,14.73
2018-08-06T08:41:12.328Z,14.78
2018-08-06T08:42:12.473Z,14.7
2018-08-06T08:43:13.223Z,14.79
2018-08-06T08:44:12.308Z,14.76
2018-08-06T08:45:12.648Z,14.9
2018-08-06T08:46:12.381Z,14.89
2018-08-06T08:47:12.360Z,14.88
2018-08-06T08:48:12.344Z,14.75
2018-08-06T08:49:12.392Z,14.81
2018-08-06T08:50:12.592Z,14.84
2018-08-06T08:51:12.320Z,14.94
2018-08-06T08:52:12.394Z,14.88
2018-08-06T08:53:12.316Z,14.8
2018-08-06T08:54:12.484Z,14.93
2018-08-06T08:55:12.371Z,15.02
2018-08-06T08:56:12.389Z,14.91
2018-08-06T08:57:12.574Z,14.93
2018-08-06T08:58:12.584Z,14.97
2018-08-06T08:59:12.336Z,14.91
2018-08-06T09:00:12.340Z,14.98
2018-08-06T09:01:12.335Z,15.07
2018-08-06T09:02:12.327Z,15.02
2018-08-06T09:03:12.374Z,15.07
2018-08-06T09:04:12.335Z,14.97
2018-08-06T09:05:12.342Z,14.97
2018-08-06T09:06:12.354Z,14.98
2018-08-06T09:07:12.536Z,15.02
2018-08-06T09:08:12.417Z,15.09
2018-08-06T09:09:12.335Z,14.99
2018-08-06T09:10:12.342Z,15.11
2018-08-06T09:11:12.460Z,15.03
2018-08-06T09:12:12.458Z,14.98
2018-08-06T09:13:12.408Z,15.02
2018-08-06T09:14:12.678Z,15.13
2018-08-06T09:15:12.415Z,15.13
2018-08-06T09:16:12.370Z,15.14
2018-08-06T09:17:12.386Z,15.18
2018-08-06T09:18:12.350Z,15.13
2018-08-06T09:19:12.355Z,15.21
2018-08-06T09:20:12.390Z,15.19
2018-08-06T09:21:12.745Z,15.16
2018-08-06T09:22:12.381Z,15.18
2018-08-06T09:23:12.365Z,15.16
2018-08-06T09:24:12.360Z,15.16
2018-08-06T09:25:12.435Z,15.11
2018-08-06T09:26:12.386Z,15.16
2018-08-06T09:27:12.381Z,15.26
2018-08-06T09:28:12.370Z,15.35
2018-08-06T09:29:12.395Z,15.31
2018-08-06T09:30:12.359Z,15.36
2018-08-06T09:31:12.419Z,15.31
2018-08-06T09:32:12.389Z,15.33
2018-08-06T09:33:12.390Z,15.25
2018-08-06T09:34:12.339Z,15.29
2018-08-06T09:35:12.355Z,15.38
2018-08-06T09:36:12.357Z,15.45
2018-08-06T09:37:12.450Z,15.38
2018-08-06T09:38:12.396Z,15.45
2018-08-06T09:39:12.393Z,15.34
2018-08-06T09:40:12.412Z,15.52
2018-08-06T09:41:12.452Z,15.45
2018-08-06T09:42:12.455Z,15.41
2018-08-06T09:43:12.374Z,15.53
2018-08-06T09:44:12.454Z,15.44
2018-08-06T09:45:12.425Z,15.21
2018-08-06T09:46:12.439Z,15.25
2018-08-06T09:47:12.683Z,15.29
2018-08-06T09:48:12.369Z,15.34
2018-08-06T09:49:12.361Z,15.33
2018-08-06T09:50:12.492Z,15.26
2018-08-06T09:51:12.483Z,15.37
2018-08-06T09:52:12.393Z,15.21
2018-08-06T09:53:12.432Z,15.4
2018-08-06T09:54:12.439Z,15.46
2018-08-06T09:55:12.401Z,15.38
2018-08-06T09:56:12.381Z,15.29
2018-08-06T09:57:13.323Z,15.35
2018-08-06T09:58:12.381Z,15.29
2018-08-06T09:59:12.433Z,15.24
2018-08-06T10:00:12.857Z,15.28
2018-08-06T10:01:12.371Z,15.28
2018-08-06T10:02:12.423Z,15.3
2018-08-06T10:03:12.399Z,15.3
2018-08-06T10:04:13.217Z,15.47
2018-08-06T10:05:12.407Z,15.46
2018-08-06T10:06:13.586Z,15.27
2018-08-06T10:07:12.391Z,15.44
2018-08-06T10:08:12.568Z,15.44
2018-08-06T10:09:12.390Z,15.43
2018-08-06T10:10:12.841Z,15.57
2018-08-06T10:11:13.074Z,15.55
2018-08-06T10:12:12.581Z,15.63
2018-08-06T10:13:12.458Z,15.59
2018-08-06T10:14:12.473Z,15.65
2018-08-06T10:15:12.402Z,15.57
2018-08-06T10:16:12.432Z,15.61
2018-08-06T10:17:12.412Z,15.7
2018-08-06T10:18:12.436Z,15.51
2018-08-06T10:19:13.374Z,15.47
2018-08-06T10:20:12.512Z,15.56
2018-08-06T10:21:12.551Z,15.47
2018-08-06T10:22:12.553Z,15.56
2018-08-06T10:23:12.501Z,15.56
2018-08-06T10:24:12.479Z,15.72
2018-08-06T10:25:12.456Z,15.75
2018-08-06T10:26:12.435Z,15.84
2018-08-06T10:27:12.475Z,15.67
2018-08-06T10:28:12.580Z,15.49
2018-08-06T10:29:12.631Z,15.74
2018-08-06T10:30:12.775Z,15.66
2018-08-06T10:31:12.500Z,15.5
2018-08-06T10:32:12.433Z,15.32
2018-08-06T10:33:12.481Z,15.34
2018-08-06T10:34:12.437Z,15.5
2018-08-06T10:35:12.504Z,15.72
2018-08-06T10:36:12.429Z,15.61
2018-08-06T10:37:12.477Z,15.83
2018-08-06T10:38:12.480Z,15.74
2018-08-06T10:39:12.505Z,15.39
2018-08-06T10:40:12.720Z,15.36
2018-08-06T10:41:12.428Z,15.52
2018-08-06T10:42:12.516Z,15.61
2018-08-06T10:43:12.465Z,15.69
2018-08-06T10:44:12.443Z,15.61
2018-08-06T10:45:12.527Z,15.61
2018-08-06T10:46:12.473Z,15.61
2018-08-06T10:47:12.466Z,15.55
2018-08-06T10:48:12.772Z,15.62
2018-08-06T10:49:12.466Z,15.5
2018-08-06T10:50:12.480Z,15.41
2018-08-06T10:51:12.449Z,15.53
2018-08-06T10:52:12.828Z,15.71
2018-08-06T10:53:12.638Z,15.62
2018-08-06T10:54:12.762Z,15.43
2018-08-06T10:55:12.638Z,15.29
2018-08-06T10:56:12.551Z,15.43
2018-08-06T10:57:12.619Z,15.54
2018-08-06T10:58:12.697Z,15.5
2018-08-06T10:59:12.625Z,15.61
2018-08-06T11:00:12.493Z,15.69
2018-08-06T11:01:12.889Z,15.68
2018-08-06T11:02:12.478Z,15.48
2018-08-06T11:03:12.595Z,15.64
2018-08-06T11:04:12.602Z,15.68
2018-08-06T11:05:13.041Z,15.77
2018-08-06T11:06:12.542Z,15.65
2018-08-06T11:07:12.575Z,15.78
2018-08-06T11:08:12.624Z,15.89
2018-08-06T11:09:12.554Z,15.72
2018-08-06T11:10:12.858Z,15.85
2018-08-06T11:11:12.534Z,15.75
2018-08-06T11:12:12.659Z,15.92
2018-08-06T11:13:12.553Z,16.03
2018-08-06T11:14:13.378Z,15.52
2018-08-06T11:15:12.545Z,15.82
2018-08-06T11:16:12.575Z,15.65
2018-08-06T11:17:13.011Z,15.93
2018-08-06T11:18:12.532Z,15.97
2018-08-06T11:19:12.707Z,15.87
2018-08-06T11:20:12.683Z,15.7
2018-08-06T11:21:12.635Z,15.7
2018-08-06T11:22:12.574Z,15.87
2018-08-06T11:23:12.538Z,15.93
2018-08-06T11:24:12.561Z,15.74
2018-08-06T11:25:12.566Z,15.88
2018-08-06T11:26:12.580Z,16
2018-08-06T11:27:12.577Z,16.05
2018-08-06T11:28:12.809Z,15.95
2018-08-06T11:29:12.609Z,15.89
2018-08-06T11:30:12.573Z,15.78
2018-08-06T11:31:12.538Z,15.82
2018-08-06T11:32:12.578Z,15.95
2018-08-06T11:33:12.534Z,15.89
2018-08-06T11:34:12.537Z,15.69
2018-08-06T11:35:12.514Z,15.72
2018-08-06T11:36:12.652Z,15.85
2018-08-06T11:37:12.602Z,15.74
2018-08-06T11:38:12.532Z,15.79
2018-08-06T11:39:12.540Z,15.72
2018-08-06T11:40:12.542Z,15.7
2018-08-06T11:41:12.513Z,15.87
2018-08-06T11:42:12.531Z,15.78
2018-08-06T11:43:12.603Z,15.44
2018-08-06T11:44:12.547Z,15.58
2018-08-06T11:45:12.539Z,15.54
2018-08-06T11:46:12.578Z,15.48
2018-08-06T11:47:12.551Z,15.65
2018-08-06T11:48:12.559Z,15.74
2018-08-06T11:49:12.607Z,15.79
2018-08-06T11:50:12.736Z,15.55
2018-08-06T11:51:12.580Z,15.64
2018-08-06T11:52:12.675Z,15.68
2018-08-06T11:53:12.560Z,15.59
2018-08-06T11:54:12.589Z,15.82
2018-08-06T11:55:13.699Z,15.78
2018-08-06T11:56:12.561Z,15.87
2018-08-06T11:57:12.546Z,15.73
2018-08-06T11:58:12.902Z,15.82
2018-08-06T11:59:12.585Z,15.8
2018-08-06T12:00:12.524Z,15.43
2018-08-06T12:01:12.549Z,15.56
2018-08-06T12:02:12.566Z,15.54
2018-08-06T12:03:12.600Z,15.49
2018-08-06T12:04:12.579Z,15.47
2018-08-06T12:05:12.550Z,15.58
2018-08-06T12:06:12.555Z,15.47
2018-08-06T12:07:12.627Z,15.58
2018-08-06T12:08:12.584Z,15.56
2018-08-06T12:09:12.643Z,15.24
2018-08-06T12:10:12.598Z,15.52
2018-08-06T12:11:12.588Z,15.86
2018-08-06T12:12:12.594Z,15.71
2018-08-06T12:13:12.586Z,15.86
2018-08-06T12:14:12.646Z,15.78
2018-08-06T12:15:13.311Z,15.77
2018-08-06T12:16:12.590Z,15.86
2018-08-06T12:17:12.627Z,15.77
2018-08-06T12:18:12.710Z,15.78
2018-08-06T12:19:12.679Z,15.51
2018-08-06T12:20:12.696Z,15.8
2018-08-06T12:21:12.656Z,15.99
2018-08-06T12:22:12.635Z,16.04
2018-08-06T12:23:12.613Z,15.74
2018-08-06T12:24:12.652Z,15.39
2018-08-06T12:25:12.890Z,15.31
2018-08-06T12:26:13.317Z,15.76
2018-08-06T12:27:12.782Z,15.84
2018-08-06T12:28:12.613Z,15.93
2018-08-06T12:29:12.902Z,15.65
2018-08-06T12:30:12.918Z,15.8
2018-08-06T12:31:13.199Z,15.95
2018-08-06T12:32:12.611Z,15.54
2018-08-06T12:33:12.790Z,15.5
2018-08-06T12:34:12.605Z,15.53
2018-08-06T12:35:12.944Z,15.57
2018-08-06T12:36:12.675Z,15.56
2018-08-06T12:37:12.592Z,15.62
2018-08-06T12:38:13.217Z,15.59
2018-08-06T12:39:12.643Z,15.71
2018-08-06T12:40:12.735Z,15.45
2018-08-06T12:41:12.608Z,15.37
2018-08-06T12:42:12.739Z,15.54
2018-08-06T12:43:12.744Z,15.49
2018-08-06T12:44:12.609Z,15.68
2018-08-06T12:45:12.629Z,15.86
2018-08-06T12:46:13.231Z,15.88
2018-08-06T12:47:12.697Z,15.94
2018-08-06T12:48:12.706Z,15.81
2018-08-06T12:49:12.616Z,15.22
2018-08-06T12:50:12.773Z,15.36
2018-08-06T12:51:12.984Z,15.62
2018-08-06T12:52:12.775Z,15.57
2018-08-06T12:53:12.672Z,15.51
2018-08-06T12:54:12.642Z,15.68
2018-08-06T12:55:12.687Z,15.52